This is the latest recevied weather packets stored in our database for station/object KC3HIX. If no packets are shown the sender has not sent any weather packets the latest 10 day(s).
| Time | Temp. | Humidity | Pressure | Rain* | Wind** | Luminosity | Snow |
|---|---|---|---|---|---|---|---|
| 1777649104 | 13.89° C | 54% | 1013.4 hPa | 0 mm | - | - | - |
| 1777647604 | 13.33° C | 56% | 1013.7 hPa | 0 mm | - | - | - |
| 1777645525 | 15° C | 53% | 1013.7 hPa | 0 mm | - | - | - |
| 1777644303 | 16.67° C | 54% | 1014.1 hPa | 0 mm | - | - | - |
| 1777637708 | 10° C | 78% | 1015.1 hPa | 0 mm | - | - | - |
| 1777635308 | 4.44° C | 99% | 1015.1 hPa | 0 mm | - | - | - |
| 1777633808 | 2.78° C | 99% | 1014.8 hPa | 0 mm | - | - | - |
| 1777628107 | 2.78° C | 98% | 1013.7 hPa | 0 mm | - | - | - |
| 1777627207 | 2.78° C | 98% | 1013.4 hPa | 0 mm | - | - | - |
| 1777626307 | 2.78° C | 98% | 1013.7 hPa | 0 mm | - | - | - |
| 1777623607 | 3.33° C | 98% | 1013.7 hPa | 0 mm | - | - | - |
| 1777622707 | 3.33° C | 98% | 1013.7 hPa | 0 mm | - | - | - |
| 1777617607 | 4.44° C | 98% | 1013.4 hPa | 0 mm | - | - | - |
| 1777615807 | 4.44° C | 97% | 1013.7 hPa | 0 mm | - | - | - |
| 1777615207 | 4.44° C | 97% | 1013.7 hPa | 0 mm | - | - | - |
| 1777614606 | 4.44° C | 96% | 1013.7 hPa | 0 mm | - | - | - |
| 1777614006 | 5° C | 96% | 1013.7 hPa | 0 mm | - | - | - |
| 1777613406 | 5° C | 96% | 1013.7 hPa | 0 mm | - | - | - |
| 1777611606 | 5.56° C | 95% | 1013.4 hPa | 0 mm | - | - | - |
| 1777610106 | 5.56° C | 94% | 1013.4 hPa | 0 mm | - | - | - |
| 1777607727 | 6.67° C | 92% | 1013.4 hPa | 0 mm | - | - | - |
| 1777607429 | 6.67° C | 92% | 1013.4 hPa | 0 mm | - | - | - |
| 1777605906 | 7.22° C | 89% | 1013.4 hPa | 0 mm | - | - | - |
| 1777605006 | 7.78° C | 88% | 1013.4 hPa | 0 mm | - | - | - |
| 1777601706 | 8.89° C | 91% | 1013.4 hPa | 0 mm | - | - | - |
* Rain latest hour (hover to see other rain measurements)
** Current wind speed in m/s (hover to see current wind gust speed)